sensor_id;sensor_type;location;lat;lon;timestamp;P1;durP1;ratioP1;P2;durP2;ratioP2
8704;SDS011;4389;41.932;25.904;2023-07-13T00:00:35;13.33;;;10.37;;
8704;SDS011;4389;41.932;25.904;2023-07-13T00:03:03;13.93;;;11.63;;
8704;SDS011;4389;41.932;25.904;2023-07-13T00:05:30;15.43;;;11.27;;
8704;SDS011;4389;41.932;25.904;2023-07-13T00:07:57;14.67;;;10.57;;
8704;SDS011;4389;41.932;25.904;2023-07-13T00:10:24;20.33;;;13.53;;
8704;SDS011;4389;41.932;25.904;2023-07-13T00:12:51;14.80;;;12.07;;
8704;SDS011;4389;41.932;25.904;2023-07-13T00:15:22;21.23;;;13.57;;
8704;SDS011;4389;41.932;25.904;2023-07-13T00:17:50;19.47;;;11.63;;
8704;SDS011;4389;41.932;25.904;2023-07-13T00:20:18;21.83;;;12.40;;
8704;SDS011;4389;41.932;25.904;2023-07-13T00:22:47;18.02;;;11.65;;
8704;SDS011;4389;41.932;25.904;2023-07-13T00:25:14;14.00;;;10.67;;
8704;SDS011;4389;41.932;25.904;2023-07-13T00:27:42;13.87;;;11.73;;
8704;SDS011;4389;41.932;25.904;2023-07-13T00:30:10;19.17;;;13.17;;
8704;SDS011;4389;41.932;25.904;2023-07-13T00:32:38;16.20;;;12.80;;
8704;SDS011;4389;41.932;25.904;2023-07-13T00:35:06;18.83;;;13.05;;
8704;SDS011;4389;41.932;25.904;2023-07-13T00:37:33;16.73;;;12.40;;
8704;SDS011;4389;41.932;25.904;2023-07-13T00:40:01;13.73;;;10.87;;
8704;SDS011;4389;41.932;25.904;2023-07-13T00:42:28;17.90;;;11.20;;
8704;SDS011;4389;41.932;25.904;2023-07-13T00:45:06;17.47;;;11.40;;
8704;SDS011;4389;41.932;25.904;2023-07-13T00:47:56;13.77;;;11.57;;
8704;SDS011;4389;41.932;25.904;2023-07-13T00:50:24;24.83;;;16.40;;
8704;SDS011;4389;41.932;25.904;2023-07-13T00:52:52;23.83;;;14.13;;
8704;SDS011;4389;41.932;25.904;2023-07-13T00:55:23;18.57;;;13.20;;
8704;SDS011;4389;41.932;25.904;2023-07-13T00:57:50;17.37;;;13.60;;
8704;SDS011;4389;41.932;25.904;2023-07-13T01:00:17;12.47;;;10.73;;
8704;SDS011;4389;41.932;25.904;2023-07-13T01:02:45;12.00;;;10.50;;
8704;SDS011;4389;41.932;25.904;2023-07-13T01:05:14;15.87;;;11.67;;
8704;SDS011;4389;41.932;25.904;2023-07-13T01:07:44;18.97;;;11.93;;
8704;SDS011;4389;41.932;25.904;2023-07-13T01:10:12;15.97;;;11.00;;
8704;SDS011;4389;41.932;25.904;2023-07-13T01:12:40;31.20;;;14.53;;
8704;SDS011;4389;41.932;25.904;2023-07-13T01:18:03;32.87;;;13.43;;
8704;SDS011;4389;41.932;25.904;2023-07-13T01:20:31;18.07;;;11.90;;
8704;SDS011;4389;41.932;25.904;2023-07-13T01:23:03;15.40;;;11.73;;
8704;SDS011;4389;41.932;25.904;2023-07-13T01:25:31;12.50;;;10.93;;
8704;SDS011;4389;41.932;25.904;2023-07-13T01:27:58;15.63;;;11.73;;
8704;SDS011;4389;41.932;25.904;2023-07-13T01:30:25;25.43;;;11.83;;
8704;SDS011;4389;41.932;25.904;2023-07-13T01:32:52;12.70;;;11.33;;
8704;SDS011;4389;41.932;25.904;2023-07-13T01:35:18;39.77;;;14.33;;
8704;SDS011;4389;41.932;25.904;2023-07-13T01:37:45;16.67;;;13.00;;
8704;SDS011;4389;41.932;25.904;2023-07-13T01:40:13;17.47;;;13.40;;
8704;SDS011;4389;41.932;25.904;2023-07-13T01:42:41;16.93;;;12.40;;
8704;SDS011;4389;41.932;25.904;2023-07-13T01:45:08;19.27;;;13.33;;
8704;SDS011;4389;41.932;25.904;2023-07-13T01:47:35;17.77;;;12.30;;
8704;SDS011;4389;41.932;25.904;2023-07-13T01:50:02;21.00;;;13.07;;
8704;SDS011;4389;41.932;25.904;2023-07-13T01:52:29;16.63;;;11.77;;
8704;SDS011;4389;41.932;25.904;2023-07-13T01:54:55;19.40;;;12.93;;
8704;SDS011;4389;41.932;25.904;2023-07-13T01:57:24;16.47;;;12.03;;
8704;SDS011;4389;41.932;25.904;2023-07-13T01:59:50;15.53;;;12.73;;
8704;SDS011;4389;41.932;25.904;2023-07-13T02:02:17;13.23;;;10.70;;
8704;SDS011;4389;41.932;25.904;2023-07-13T02:04:44;24.07;;;12.37;;
8704;SDS011;4389;41.932;25.904;2023-07-13T02:07:11;20.07;;;11.80;;
8704;SDS011;4389;41.932;25.904;2023-07-13T02:09:40;17.10;;;12.83;;
8704;SDS011;4389;41.932;25.904;2023-07-13T02:12:07;20.10;;;13.30;;
8704;SDS011;4389;41.932;25.904;2023-07-13T02:14:36;15.43;;;12.47;;
8704;SDS011;4389;41.932;25.904;2023-07-13T02:17:03;19.17;;;13.03;;
8704;SDS011;4389;41.932;25.904;2023-07-13T02:19:30;23.87;;;12.43;;
8704;SDS011;4389;41.932;25.904;2023-07-13T02:21:57;17.97;;;13.43;;
8704;SDS011;4389;41.932;25.904;2023-07-13T02:24:24;17.53;;;12.63;;
8704;SDS011;4389;41.932;25.904;2023-07-13T02:26:52;26.83;;;14.90;;
8704;SDS011;4389;41.932;25.904;2023-07-13T02:29:18;21.83;;;12.33;;
8704;SDS011;4389;41.932;25.904;2023-07-13T02:31:47;20.23;;;12.53;;
8704;SDS011;4389;41.932;25.904;2023-07-13T02:34:13;12.90;;;11.27;;
8704;SDS011;4389;41.932;25.904;2023-07-13T02:36:40;48.10;;;13.80;;
8704;SDS011;4389;41.932;25.904;2023-07-13T02:39:07;30.23;;;12.17;;
8704;SDS011;4389;41.932;25.904;2023-07-13T02:41:35;20.17;;;13.03;;
8704;SDS011;4389;41.932;25.904;2023-07-13T02:44:02;17.33;;;12.50;;
8704;SDS011;4389;41.932;25.904;2023-07-13T02:46:29;15.23;;;12.00;;
8704;SDS011;4389;41.932;25.904;2023-07-13T02:48:57;18.57;;;13.10;;
8704;SDS011;4389;41.932;25.904;2023-07-13T02:51:24;17.50;;;12.10;;
8704;SDS011;4389;41.932;25.904;2023-07-13T02:53:51;21.93;;;12.53;;
8704;SDS011;4389;41.932;25.904;2023-07-13T02:56:22;15.30;;;12.23;;
8704;SDS011;4389;41.932;25.904;2023-07-13T02:58:51;13.97;;;11.30;;
8704;SDS011;4389;41.932;25.904;2023-07-13T03:01:18;60.20;;;17.07;;
8704;SDS011;4389;41.932;25.904;2023-07-13T03:03:46;19.83;;;12.87;;
8704;SDS011;4389;41.932;25.904;2023-07-13T03:06:14;12.87;;;11.57;;
8704;SDS011;4389;41.932;25.904;2023-07-13T03:08:42;18.03;;;13.10;;
8704;SDS011;4389;41.932;25.904;2023-07-13T03:11:11;23.13;;;12.80;;
8704;SDS011;4389;41.932;25.904;2023-07-13T03:13:39;14.57;;;11.43;;
8704;SDS011;4389;41.932;25.904;2023-07-13T03:16:07;21.93;;;12.77;;
8704;SDS011;4389;41.932;25.904;2023-07-13T03:18:35;30.03;;;13.07;;
8704;SDS011;4389;41.932;25.904;2023-07-13T03:21:02;17.53;;;12.10;;
8704;SDS011;4389;41.932;25.904;2023-07-13T03:23:31;23.07;;;12.20;;
8704;SDS011;4389;41.932;25.904;2023-07-13T03:26:02;15.00;;;11.03;;
8704;SDS011;4389;41.932;25.904;2023-07-13T03:28:30;13.03;;;11.00;;
8704;SDS011;4389;41.932;25.904;2023-07-13T03:31:01;14.17;;;10.87;;
8704;SDS011;4389;41.932;25.904;2023-07-13T03:33:29;13.77;;;11.93;;
8704;SDS011;4389;41.932;25.904;2023-07-13T03:35:56;16.90;;;11.07;;
8704;SDS011;4389;41.932;25.904;2023-07-13T03:38:23;15.17;;;11.20;;
8704;SDS011;4389;41.932;25.904;2023-07-13T03:40:53;12.07;;;10.77;;
8704;SDS011;4389;41.932;25.904;2023-07-13T03:43:20;15.17;;;10.30;;
8704;SDS011;4389;41.932;25.904;2023-07-13T03:45:47;14.73;;;10.50;;
8704;SDS011;4389;41.932;25.904;2023-07-13T03:48:14;17.92;;;13.88;;
8704;SDS011;4389;41.932;25.904;2023-07-13T03:50:41;18.13;;;13.33;;
8704;SDS011;4389;41.932;25.904;2023-07-13T03:53:08;29.02;;;16.33;;
8704;SDS011;4389;41.932;25.904;2023-07-13T03:55:35;22.27;;;14.03;;
8704;SDS011;4389;41.932;25.904;2023-07-13T04:00:52;14.82;;;13.23;;
8704;SDS011;4389;41.932;25.904;2023-07-13T04:03:19;15.98;;;13.63;;
8704;SDS011;4389;41.932;25.904;2023-07-13T04:05:46;18.75;;;12.65;;
8704;SDS011;4389;41.932;25.904;2023-07-13T04:08:13;15.10;;;12.40;;
8704;SDS011;4389;41.932;25.904;2023-07-13T04:10:40;66.97;;;17.15;;
8704;SDS011;4389;41.932;25.904;2023-07-13T04:13:07;25.52;;;12.88;;
8704;SDS011;4389;41.932;25.904;2023-07-13T04:15:35;18.45;;;12.35;;
8704;SDS011;4389;41.932;25.904;2023-07-13T04:18:02;15.50;;;13.38;;
8704;SDS011;4389;41.932;25.904;2023-07-13T04:20:29;17.83;;;12.32;;
8704;SDS011;4389;41.932;25.904;2023-07-13T04:22:56;29.63;;;14.32;;
8704;SDS011;4389;41.932;25.904;2023-07-13T04:25:23;49.80;;;15.38;;
8704;SDS011;4389;41.932;25.904;2023-07-13T04:27:50;26.83;;;13.98;;
8704;SDS011;4389;41.932;25.904;2023-07-13T04:30:24;21.50;;;14.07;;
8704;SDS011;4389;41.932;25.904;2023-07-13T04:32:52;19.98;;;12.80;;
8704;SDS011;4389;41.932;25.904;2023-07-13T04:35:19;18.20;;;13.57;;
8704;SDS011;4389;41.932;25.904;2023-07-13T04:37:47;22.10;;;20.13;;
8704;SDS011;4389;41.932;25.904;2023-07-13T04:40:15;24.40;;;22.10;;
8704;SDS011;4389;41.932;25.904;2023-07-13T04:42:43;27.08;;;20.77;;
8704;SDS011;4389;41.932;25.904;2023-07-13T04:45:10;27.83;;;22.25;;
8704;SDS011;4389;41.932;25.904;2023-07-13T04:47:37;23.17;;;20.58;;
8704;SDS011;4389;41.932;25.904;2023-07-13T04:50:06;37.53;;;17.67;;
8704;SDS011;4389;41.932;25.904;2023-07-13T04:52:34;44.70;;;16.00;;
8704;SDS011;4389;41.932;25.904;2023-07-13T04:55:00;15.88;;;13.65;;
8704;SDS011;4389;41.932;25.904;2023-07-13T04:57:27;22.80;;;13.20;;
8704;SDS011;4389;41.932;25.904;2023-07-13T04:59:55;19.13;;;13.57;;
8704;SDS011;4389;41.932;25.904;2023-07-13T05:02:21;23.65;;;13.18;;
8704;SDS011;4389;41.932;25.904;2023-07-13T05:04:48;30.35;;;15.55;;
8704;SDS011;4389;41.932;25.904;2023-07-13T05:07:17;27.25;;;14.55;;
8704;SDS011;4389;41.932;25.904;2023-07-13T05:09:43;25.33;;;14.35;;
8704;SDS011;4389;41.932;25.904;2023-07-13T05:12:10;25.20;;;14.90;;
8704;SDS011;4389;41.932;25.904;2023-07-13T05:14:37;21.60;;;15.35;;
8704;SDS011;4389;41.932;25.904;2023-07-13T05:17:04;30.13;;;15.25;;
8704;SDS011;4389;41.932;25.904;2023-07-13T05:19:31;28.98;;;15.60;;
8704;SDS011;4389;41.932;25.904;2023-07-13T05:21:58;25.85;;;14.48;;
8704;SDS011;4389;41.932;25.904;2023-07-13T05:24:26;20.70;;;14.45;;
8704;SDS011;4389;41.932;25.904;2023-07-13T05:26:53;24.02;;;15.18;;
8704;SDS011;4389;41.932;25.904;2023-07-13T05:29:20;21.38;;;14.27;;
8704;SDS011;4389;41.932;25.904;2023-07-13T05:31:47;19.35;;;14.25;;
8704;SDS011;4389;41.932;25.904;2023-07-13T05:34:14;20.98;;;14.30;;
8704;SDS011;4389;41.932;25.904;2023-07-13T05:36:41;21.85;;;12.85;;
8704;SDS011;4389;41.932;25.904;2023-07-13T05:39:09;23.55;;;14.60;;
8704;SDS011;4389;41.932;25.904;2023-07-13T05:41:38;21.08;;;13.80;;
8704;SDS011;4389;41.932;25.904;2023-07-13T05:44:04;29.73;;;14.00;;
8704;SDS011;4389;41.932;25.904;2023-07-13T05:46:31;16.20;;;12.75;;
8704;SDS011;4389;41.932;25.904;2023-07-13T05:48:58;15.63;;;12.63;;
8704;SDS011;4389;41.932;25.904;2023-07-13T05:51:25;20.35;;;11.52;;
8704;SDS011;4389;41.932;25.904;2023-07-13T05:53:52;43.30;;;14.93;;
8704;SDS011;4389;41.932;25.904;2023-07-13T05:56:19;16.92;;;12.68;;
8704;SDS011;4389;41.932;25.904;2023-07-13T05:58:48;18.17;;;14.27;;
8704;SDS011;4389;41.932;25.904;2023-07-13T06:01:15;22.98;;;15.25;;
8704;SDS011;4389;41.932;25.904;2023-07-13T06:03:44;19.73;;;16.02;;
8704;SDS011;4389;41.932;25.904;2023-07-13T06:06:10;19.08;;;14.63;;
8704;SDS011;4389;41.932;25.904;2023-07-13T06:08:37;31.13;;;14.50;;
8704;SDS011;4389;41.932;25.904;2023-07-13T06:11:05;23.52;;;15.35;;
8704;SDS011;4389;41.932;25.904;2023-07-13T06:13:34;17.98;;;14.88;;
8704;SDS011;4389;41.932;25.904;2023-07-13T06:16:02;23.65;;;15.02;;
8704;SDS011;4389;41.932;25.904;2023-07-13T06:18:30;28.40;;;14.18;;
8704;SDS011;4389;41.932;25.904;2023-07-13T06:20:58;19.52;;;14.27;;
8704;SDS011;4389;41.932;25.904;2023-07-13T06:23:24;18.65;;;14.20;;
8704;SDS011;4389;41.932;25.904;2023-07-13T06:25:51;24.88;;;15.50;;
8704;SDS011;4389;41.932;25.904;2023-07-13T06:28:18;17.33;;;14.48;;
8704;SDS011;4389;41.932;25.904;2023-07-13T06:30:45;20.40;;;14.60;;
8704;SDS011;4389;41.932;25.904;2023-07-13T06:33:13;19.05;;;14.73;;
8704;SDS011;4389;41.932;25.904;2023-07-13T06:35:40;17.33;;;14.80;;
8704;SDS011;4389;41.932;25.904;2023-07-13T06:38:07;22.58;;;14.98;;
8704;SDS011;4389;41.932;25.904;2023-07-13T06:40:34;26.27;;;15.45;;
8704;SDS011;4389;41.932;25.904;2023-07-13T06:43:00;37.17;;;17.73;;
8704;SDS011;4389;41.932;25.904;2023-07-13T06:45:27;17.33;;;13.75;;
8704;SDS011;4389;41.932;25.904;2023-07-13T06:47:54;17.55;;;13.93;;
8704;SDS011;4389;41.932;25.904;2023-07-13T06:50:22;18.02;;;14.48;;
8704;SDS011;4389;41.932;25.904;2023-07-13T06:52:49;37.97;;;15.07;;
8704;SDS011;4389;41.932;25.904;2023-07-13T06:55:17;25.63;;;13.63;;
8704;SDS011;4389;41.932;25.904;2023-07-13T06:57:44;17.33;;;13.70;;
8704;SDS011;4389;41.932;25.904;2023-07-13T07:00:12;19.40;;;13.63;;
8704;SDS011;4389;41.932;25.904;2023-07-13T07:02:39;19.40;;;13.55;;
8704;SDS011;4389;41.932;25.904;2023-07-13T07:05:06;21.20;;;15.95;;
8704;SDS011;4389;41.932;25.904;2023-07-13T07:07:34;16.05;;;14.35;;
8704;SDS011;4389;41.932;25.904;2023-07-13T07:10:02;16.67;;;14.55;;
8704;SDS011;4389;41.932;25.904;2023-07-13T07:12:29;15.43;;;13.93;;
8704;SDS011;4389;41.932;25.904;2023-07-13T07:14:57;16.50;;;14.02;;
8704;SDS011;4389;41.932;25.904;2023-07-13T07:17:24;18.83;;;14.48;;
8704;SDS011;4389;41.932;25.904;2023-07-13T07:19:51;16.48;;;13.60;;
8704;SDS011;4389;41.932;25.904;2023-07-13T07:22:19;22.30;;;13.63;;
8704;SDS011;4389;41.932;25.904;2023-07-13T07:24:47;19.95;;;14.02;;
8704;SDS011;4389;41.932;25.904;2023-07-13T07:27:14;14.95;;;13.45;;
8704;SDS011;4389;41.932;25.904;2023-07-13T07:29:41;15.13;;;12.60;;
8704;SDS011;4389;41.932;25.904;2023-07-13T07:32:07;23.30;;;13.68;;
8704;SDS011;4389;41.932;25.904;2023-07-13T07:34:34;18.77;;;14.98;;
8704;SDS011;4389;41.932;25.904;2023-07-13T07:37:01;15.75;;;14.13;;
8704;SDS011;4389;41.932;25.904;2023-07-13T07:39:28;21.00;;;14.25;;
8704;SDS011;4389;41.932;25.904;2023-07-13T07:41:57;16.10;;;13.75;;
8704;SDS011;4389;41.932;25.904;2023-07-13T07:44:24;22.00;;;14.45;;
8704;SDS011;4389;41.932;25.904;2023-07-13T07:46:52;16.10;;;13.52;;
8704;SDS011;4389;41.932;25.904;2023-07-13T07:49:19;16.52;;;13.43;;
8704;SDS011;4389;41.932;25.904;2023-07-13T07:51:46;15.52;;;13.02;;
8704;SDS011;4389;41.932;25.904;2023-07-13T07:54:13;22.35;;;14.32;;
8704;SDS011;4389;41.932;25.904;2023-07-13T07:56:40;17.60;;;13.20;;
8704;SDS011;4389;41.932;25.904;2023-07-13T07:59:08;19.20;;;13.45;;
8704;SDS011;4389;41.932;25.904;2023-07-13T08:01:35;16.23;;;13.88;;
8704;SDS011;4389;41.932;25.904;2023-07-13T08:04:02;18.85;;;14.15;;
8704;SDS011;4389;41.932;25.904;2023-07-13T08:06:31;16.67;;;13.13;;
8704;SDS011;4389;41.932;25.904;2023-07-13T08:08:58;19.13;;;13.55;;
8704;SDS011;4389;41.932;25.904;2023-07-13T08:11:25;28.63;;;15.20;;
8704;SDS011;4389;41.932;25.904;2023-07-13T08:13:52;16.23;;;13.23;;
8704;SDS011;4389;41.932;25.904;2023-07-13T08:16:20;15.68;;;12.52;;
8704;SDS011;4389;41.932;25.904;2023-07-13T08:18:47;20.27;;;13.50;;
8704;SDS011;4389;41.932;25.904;2023-07-13T08:21:14;20.20;;;14.20;;
8704;SDS011;4389;41.932;25.904;2023-07-13T08:23:41;14.45;;;13.02;;
8704;SDS011;4389;41.932;25.904;2023-07-13T08:26:08;18.73;;;14.20;;
8704;SDS011;4389;41.932;25.904;2023-07-13T08:28:35;16.48;;;13.18;;
8704;SDS011;4389;41.932;25.904;2023-07-13T08:31:02;20.27;;;13.10;;
8704;SDS011;4389;41.932;25.904;2023-07-13T08:33:30;14.00;;;12.50;;
8704;SDS011;4389;41.932;25.904;2023-07-13T08:35:57;29.67;;;13.43;;
8704;SDS011;4389;41.932;25.904;2023-07-13T08:38:24;17.15;;;12.85;;
8704;SDS011;4389;41.932;25.904;2023-07-13T08:40:51;20.52;;;14.23;;
8704;SDS011;4389;41.932;25.904;2023-07-13T08:43:22;19.00;;;13.35;;
8704;SDS011;4389;41.932;25.904;2023-07-13T08:45:53;19.25;;;12.07;;
8704;SDS011;4389;41.932;25.904;2023-07-13T08:48:26;21.02;;;13.48;;
8704;SDS011;4389;41.932;25.904;2023-07-13T08:50:57;15.23;;;12.88;;
8704;SDS011;4389;41.932;25.904;2023-07-13T08:53:29;14.80;;;12.35;;
8704;SDS011;4389;41.932;25.904;2023-07-13T08:56:02;18.92;;;11.88;;
8704;SDS011;4389;41.932;25.904;2023-07-13T08:58:33;15.93;;;12.45;;
8704;SDS011;4389;41.932;25.904;2023-07-13T09:01:02;198.18;;;25.88;;
8704;SDS011;4389;41.932;25.904;2023-07-13T09:03:40;19.90;;;12.32;;
8704;SDS011;4389;41.932;25.904;2023-07-13T09:06:27;18.92;;;12.70;;
8704;SDS011;4389;41.932;25.904;2023-07-13T09:09:01;23.83;;;11.73;;
8704;SDS011;4389;41.932;25.904;2023-07-13T09:11:36;23.23;;;12.23;;
8704;SDS011;4389;41.932;25.904;2023-07-13T09:14:19;19.25;;;11.80;;
8704;SDS011;4389;41.932;25.904;2023-07-13T09:17:01;17.90;;;11.43;;
8704;SDS011;4389;41.932;25.904;2023-07-13T09:19:31;22.77;;;11.85;;
8704;SDS011;4389;41.932;25.904;2023-07-13T09:22:02;15.50;;;11.60;;
8704;SDS011;4389;41.932;25.904;2023-07-13T09:24:35;19.88;;;11.68;;
8704;SDS011;4389;41.932;25.904;2023-07-13T09:27:08;19.08;;;11.85;;
8704;SDS011;4389;41.932;25.904;2023-07-13T09:29:40;19.77;;;11.68;;
8704;SDS011;4389;41.932;25.904;2023-07-13T09:32:12;16.20;;;10.63;;
8704;SDS011;4389;41.932;25.904;2023-07-13T09:34:43;13.75;;;11.23;;
8704;SDS011;4389;41.932;25.904;2023-07-13T09:37:18;18.33;;;11.98;;
8704;SDS011;4389;41.932;25.904;2023-07-13T09:39:48;14.43;;;10.77;;
8704;SDS011;4389;41.932;25.904;2023-07-13T09:42:18;19.52;;;11.23;;
8704;SDS011;4389;41.932;25.904;2023-07-13T09:44:54;18.98;;;11.70;;
8704;SDS011;4389;41.932;25.904;2023-07-13T09:47:23;13.88;;;10.27;;
8704;SDS011;4389;41.932;25.904;2023-07-13T09:49:56;13.57;;;10.55;;
8704;SDS011;4389;41.932;25.904;2023-07-13T09:52:25;18.85;;;10.25;;
8704;SDS011;4389;41.932;25.904;2023-07-13T09:54:54;17.65;;;8.70;;
8704;SDS011;4389;41.932;25.904;2023-07-13T09:57:24;12.32;;;8.70;;
8704;SDS011;4389;41.932;25.904;2023-07-13T09:59:53;18.73;;;9.02;;
8704;SDS011;4389;41.932;25.904;2023-07-13T10:02:28;11.98;;;9.43;;
8704;SDS011;4389;41.932;25.904;2023-07-13T10:04:58;25.23;;;9.70;;
8704;SDS011;4389;41.932;25.904;2023-07-13T10:07:27;16.20;;;9.90;;
8704;SDS011;4389;41.932;25.904;2023-07-13T10:09:54;11.07;;;8.55;;
8704;SDS011;4389;41.932;25.904;2023-07-13T10:12:21;14.23;;;8.18;;
8704;SDS011;4389;41.932;25.904;2023-07-13T10:14:50;14.27;;;8.10;;
8704;SDS011;4389;41.932;25.904;2023-07-13T10:17:21;10.30;;;8.23;;
8704;SDS011;4389;41.932;25.904;2023-07-13T10:19:56;23.27;;;8.85;;
8704;SDS011;4389;41.932;25.904;2023-07-13T10:22:31;16.70;;;8.30;;
8704;SDS011;4389;41.932;25.904;2023-07-13T10:25:12;32.28;;;10.40;;
8704;SDS011;4389;41.932;25.904;2023-07-13T10:27:41;12.77;;;8.02;;
8704;SDS011;4389;41.932;25.904;2023-07-13T10:30:11;12.43;;;8.23;;
8704;SDS011;4389;41.932;25.904;2023-07-13T10:32:41;11.20;;;7.50;;
8704;SDS011;4389;41.932;25.904;2023-07-13T10:35:09;11.73;;;8.35;;
8704;SDS011;4389;41.932;25.904;2023-07-13T10:37:41;10.43;;;7.90;;
8704;SDS011;4389;41.932;25.904;2023-07-13T10:40:12;11.18;;;7.00;;
8704;SDS011;4389;41.932;25.904;2023-07-13T10:42:44;31.45;;;9.77;;
8704;SDS011;4389;41.932;25.904;2023-07-13T10:45:14;11.23;;;8.27;;
8704;SDS011;4389;41.932;25.904;2023-07-13T10:47:42;15.35;;;8.45;;
8704;SDS011;4389;41.932;25.904;2023-07-13T10:50:13;9.55;;;7.40;;
8704;SDS011;4389;41.932;25.904;2023-07-13T10:52:46;14.07;;;8.05;;
8704;SDS011;4389;41.932;25.904;2023-07-13T10:55:31;10.50;;;7.20;;
8704;SDS011;4389;41.932;25.904;2023-07-13T10:58:03;10.27;;;8.38;;
8704;SDS011;4389;41.932;25.904;2023-07-13T11:00:43;10.55;;;8.30;;
8704;SDS011;4389;41.932;25.904;2023-07-13T11:03:14;12.40;;;7.72;;
8704;SDS011;4389;41.932;25.904;2023-07-13T11:05:44;13.52;;;8.00;;
8704;SDS011;4389;41.932;25.904;2023-07-13T11:08:19;16.23;;;7.90;;
8704;SDS011;4389;41.932;25.904;2023-07-13T11:10:52;24.98;;;8.05;;
8704;SDS011;4389;41.932;25.904;2023-07-13T11:13:38;13.70;;;7.32;;
8704;SDS011;4389;41.932;25.904;2023-07-13T11:16:33;12.00;;;8.07;;
8704;SDS011;4389;41.932;25.904;2023-07-13T11:19:23;16.73;;;6.30;;
8704;SDS011;4389;41.932;25.904;2023-07-13T11:22:10;11.48;;;6.53;;
8704;SDS011;4389;41.932;25.904;2023-07-13T11:25:01;11.45;;;6.82;;
8704;SDS011;4389;41.932;25.904;2023-07-13T11:27:49;15.82;;;6.40;;
8704;SDS011;4389;41.932;25.904;2023-07-13T11:30:21;12.73;;;6.97;;
8704;SDS011;4389;41.932;25.904;2023-07-13T11:32:51;11.55;;;7.03;;
8704;SDS011;4389;41.932;25.904;2023-07-13T11:35:31;11.02;;;6.80;;
8704;SDS011;4389;41.932;25.904;2023-07-13T11:38:08;12.50;;;6.47;;
8704;SDS011;4389;41.932;25.904;2023-07-13T11:40:41;10.52;;;6.60;;
8704;SDS011;4389;41.932;25.904;2023-07-13T11:43:12;16.17;;;6.95;;
8704;SDS011;4389;41.932;25.904;2023-07-13T11:45:40;13.88;;;6.15;;
8704;SDS011;4389;41.932;25.904;2023-07-13T11:48:17;6.40;;;5.82;;
8704;SDS011;4389;41.932;25.904;2023-07-13T11:50:50;31.55;;;7.18;;
8704;SDS011;4389;41.932;25.904;2023-07-13T11:53:21;18.52;;;6.88;;
8704;SDS011;4389;41.932;25.904;2023-07-13T11:55:51;10.25;;;6.00;;
8704;SDS011;4389;41.932;25.904;2023-07-13T11:58:19;10.07;;;6.13;;
8704;SDS011;4389;41.932;25.904;2023-07-13T12:00:50;9.95;;;6.30;;
8704;SDS011;4389;41.932;25.904;2023-07-13T12:03:20;12.43;;;5.93;;
8704;SDS011;4389;41.932;25.904;2023-07-13T12:05:57;7.85;;;5.85;;
8704;SDS011;4389;41.932;25.904;2023-07-13T12:08:26;14.80;;;6.60;;
8704;SDS011;4389;41.932;25.904;2023-07-13T12:10:58;7.82;;;5.70;;
8704;SDS011;4389;41.932;25.904;2023-07-13T12:13:27;11.82;;;6.93;;
8704;SDS011;4389;41.932;25.904;2023-07-13T12:15:55;14.10;;;5.90;;
8704;SDS011;4389;41.932;25.904;2023-07-13T12:18:23;12.27;;;5.18;;
8704;SDS011;4389;41.932;25.904;2023-07-13T12:20:57;7.00;;;5.95;;
8704;SDS011;4389;41.932;25.904;2023-07-13T12:23:28;13.38;;;5.95;;
8704;SDS011;4389;41.932;25.904;2023-07-13T12:25:58;9.90;;;5.85;;
8704;SDS011;4389;41.932;25.904;2023-07-13T12:28:31;8.13;;;6.15;;
8704;SDS011;4389;41.932;25.904;2023-07-13T12:31:00;9.57;;;5.45;;
8704;SDS011;4389;41.932;25.904;2023-07-13T12:33:28;5.78;;;5.10;;
8704;SDS011;4389;41.932;25.904;2023-07-13T12:35:57;7.60;;;5.53;;
8704;SDS011;4389;41.932;25.904;2023-07-13T12:38:28;9.52;;;4.80;;
8704;SDS011;4389;41.932;25.904;2023-07-13T12:40:57;7.03;;;5.10;;
8704;SDS011;4389;41.932;25.904;2023-07-13T12:43:25;11.75;;;5.30;;
8704;SDS011;4389;41.932;25.904;2023-07-13T12:45:56;8.15;;;5.07;;
8704;SDS011;4389;41.932;25.904;2023-07-13T12:48:25;9.38;;;5.60;;
8704;SDS011;4389;41.932;25.904;2023-07-13T12:50:53;10.20;;;5.57;;
8704;SDS011;4389;41.932;25.904;2023-07-13T12:53:22;6.72;;;5.13;;
8704;SDS011;4389;41.932;25.904;2023-07-13T12:55:57;9.10;;;5.30;;
8704;SDS011;4389;41.932;25.904;2023-07-13T12:58:28;13.68;;;5.50;;
8704;SDS011;4389;41.932;25.904;2023-07-13T13:00:58;10.60;;;5.18;;
8704;SDS011;4389;41.932;25.904;2023-07-13T13:03:29;6.47;;;5.00;;
8704;SDS011;4389;41.932;25.904;2023-07-13T13:05:58;11.65;;;5.53;;
8704;SDS011;4389;41.932;25.904;2023-07-13T13:08:29;9.38;;;5.50;;
8704;SDS011;4389;41.932;25.904;2023-07-13T13:10:58;7.13;;;5.10;;
8704;SDS011;4389;41.932;25.904;2023-07-13T13:13:25;6.80;;;5.50;;
8704;SDS011;4389;41.932;25.904;2023-07-13T13:15:51;13.07;;;6.30;;
8704;SDS011;4389;41.932;25.904;2023-07-13T13:18:19;9.27;;;5.45;;
8704;SDS011;4389;41.932;25.904;2023-07-13T13:20:47;10.38;;;5.03;;
8704;SDS011;4389;41.932;25.904;2023-07-13T13:23:15;8.77;;;5.10;;
8704;SDS011;4389;41.932;25.904;2023-07-13T13:25:44;9.30;;;5.22;;
8704;SDS011;4389;41.932;25.904;2023-07-13T13:28:14;52.40;;;8.85;;
8704;SDS011;4389;41.932;25.904;2023-07-13T13:30:43;6.93;;;4.80;;
8704;SDS011;4389;41.932;25.904;2023-07-13T13:33:11;11.13;;;5.85;;
8704;SDS011;4389;41.932;25.904;2023-07-13T13:35:39;22.48;;;5.80;;
8704;SDS011;4389;41.932;25.904;2023-07-13T13:38:10;9.65;;;5.25;;
8704;SDS011;4389;41.932;25.904;2023-07-13T13:40:39;8.88;;;5.50;;
8704;SDS011;4389;41.932;25.904;2023-07-13T13:43:17;10.35;;;5.03;;
8704;SDS011;4389;41.932;25.904;2023-07-13T13:45:45;5.60;;;4.72;;
8704;SDS011;4389;41.932;25.904;2023-07-13T13:48:16;8.13;;;5.68;;
8704;SDS011;4389;41.932;25.904;2023-07-13T13:50:45;6.10;;;5.18;;
8704;SDS011;4389;41.932;25.904;2023-07-13T13:53:13;8.98;;;5.35;;
8704;SDS011;4389;41.932;25.904;2023-07-13T13:55:41;7.50;;;4.95;;
8704;SDS011;4389;41.932;25.904;2023-07-13T13:58:08;14.25;;;6.13;;
8704;SDS011;4389;41.932;25.904;2023-07-13T14:00:37;10.68;;;5.03;;
8704;SDS011;4389;41.932;25.904;2023-07-13T14:03:05;12.55;;;5.90;;
8704;SDS011;4389;41.932;25.904;2023-07-13T14:05:40;7.07;;;4.82;;
8704;SDS011;4389;41.932;25.904;2023-07-13T14:08:08;7.50;;;4.90;;
8704;SDS011;4389;41.932;25.904;2023-07-13T14:10:39;9.27;;;5.22;;
8704;SDS011;4389;41.932;25.904;2023-07-13T14:13:07;8.43;;;5.47;;
8704;SDS011;4389;41.932;25.904;2023-07-13T14:15:45;11.23;;;5.43;;
8704;SDS011;4389;41.932;25.904;2023-07-13T14:18:13;7.90;;;5.60;;
8704;SDS011;4389;41.932;25.904;2023-07-13T14:20:43;13.45;;;5.25;;
8704;SDS011;4389;41.932;25.904;2023-07-13T14:23:09;7.07;;;5.13;;
8704;SDS011;4389;41.932;25.904;2023-07-13T14:25:36;8.00;;;4.75;;
8704;SDS011;4389;41.932;25.904;2023-07-13T14:28:04;9.32;;;5.45;;
8704;SDS011;4389;41.932;25.904;2023-07-13T14:30:45;7.82;;;4.60;;
8704;SDS011;4389;41.932;25.904;2023-07-13T14:33:12;11.27;;;4.95;;
8704;SDS011;4389;41.932;25.904;2023-07-13T14:35:40;11.80;;;4.90;;
8704;SDS011;4389;41.932;25.904;2023-07-13T14:38:08;7.40;;;4.60;;
8704;SDS011;4389;41.932;25.904;2023-07-13T14:40:37;8.07;;;4.63;;
8704;SDS011;4389;41.932;25.904;2023-07-13T14:43:07;12.23;;;4.35;;
8704;SDS011;4389;41.932;25.904;2023-07-13T14:45:37;9.10;;;6.10;;
8704;SDS011;4389;41.932;25.904;2023-07-13T14:48:12;8.20;;;4.95;;
8704;SDS011;4389;41.932;25.904;2023-07-13T14:50:42;10.85;;;4.82;;
8704;SDS011;4389;41.932;25.904;2023-07-13T14:53:09;7.40;;;5.10;;
8704;SDS011;4389;41.932;25.904;2023-07-13T14:55:37;7.57;;;4.90;;
8704;SDS011;4389;41.932;25.904;2023-07-13T14:58:04;13.90;;;5.38;;